Terminal Aerodrome Forecast
Issued by NWS

Home | Current Version | Previous Version | Text Only | Print | Product List | Glossary On
Versions: 1 2 3 4 5 6 7 8 9 10 11 12 13 14 15 16
082
FTUS43 KFGF 102327
TAFBJI
TAF
KBJI 102327Z 1100/1124 11004KT P6SM BKN120
     FM110400 11005KT P6SM OVC040
     FM110900 10007KT 5SM -SN OVC035
     FM111400 08006KT 1 1/2SM -SN OVC020
     FM111700 08006KT P6SM OVC015
     FM112200 03004KT P6SM OVC020=

USA.gov is the U.S. government's official web portal to all federal, state and local government web resources and services.